sensor_id;sensor_type;location;lat;lon;timestamp;P1;durP1;ratioP1;P2;durP2;ratioP2
55082;SDS011;40978;52.850;6.506;2023-08-12T00:00:50;0.80;;;0.20;;
55082;SDS011;40978;52.850;6.506;2023-08-12T00:03:16;0.20;;;0.10;;
55082;SDS011;40978;52.850;6.506;2023-08-12T00:05:42;0.35;;;0.10;;
55082;SDS011;40978;52.850;6.506;2023-08-12T00:08:08;0.30;;;0.10;;
55082;SDS011;40978;52.850;6.506;2023-08-12T00:10:34;0.73;;;0.20;;
55082;SDS011;40978;52.850;6.506;2023-08-12T00:13:00;0.40;;;0.32;;
55082;SDS011;40978;52.850;6.506;2023-08-12T00:15:25;0.98;;;0.20;;
55082;SDS011;40978;52.850;6.506;2023-08-12T00:17:52;0.35;;;0.10;;
55082;SDS011;40978;52.850;6.506;2023-08-12T00:20:17;4.43;;;0.30;;
55082;SDS011;40978;52.850;6.506;2023-08-12T00:22:43;0.40;;;0.20;;
55082;SDS011;40978;52.850;6.506;2023-08-12T00:25:09;0.70;;;0.10;;
55082;SDS011;40978;52.850;6.506;2023-08-12T00:27:35;1.35;;;0.17;;
55082;SDS011;40978;52.850;6.506;2023-08-12T00:30:02;0.28;;;0.13;;
55082;SDS011;40978;52.850;6.506;2023-08-12T00:32:29;1.48;;;0.20;;
55082;SDS011;40978;52.850;6.506;2023-08-12T00:34:55;0.43;;;0.10;;
55082;SDS011;40978;52.850;6.506;2023-08-12T00:37:21;1.38;;;0.20;;
55082;SDS011;40978;52.850;6.506;2023-08-12T00:39:46;0.45;;;0.10;;
55082;SDS011;40978;52.850;6.506;2023-08-12T00:42:12;0.65;;;0.10;;
55082;SDS011;40978;52.850;6.506;2023-08-12T00:44:38;0.40;;;0.30;;
55082;SDS011;40978;52.850;6.506;2023-08-12T00:47:04;0.32;;;0.20;;
55082;SDS011;40978;52.850;6.506;2023-08-12T00:49:30;0.75;;;0.30;;
55082;SDS011;40978;52.850;6.506;2023-08-12T00:51:57;0.47;;;0.28;;
55082;SDS011;40978;52.850;6.506;2023-08-12T00:54:24;0.40;;;0.20;;
55082;SDS011;40978;52.850;6.506;2023-08-12T00:56:51;1.00;;;0.32;;
55082;SDS011;40978;52.850;6.506;2023-08-12T00:59:18;1.75;;;0.30;;
55082;SDS011;40978;52.850;6.506;2023-08-12T01:01:45;0.73;;;0.32;;
55082;SDS011;40978;52.850;6.506;2023-08-12T01:04:12;0.73;;;0.35;;
55082;SDS011;40978;52.850;6.506;2023-08-12T01:06:38;0.52;;;0.32;;
55082;SDS011;40978;52.850;6.506;2023-08-12T01:09:04;0.52;;;0.15;;
55082;SDS011;40978;52.850;6.506;2023-08-12T01:11:50;0.45;;;0.20;;
55082;SDS011;40978;52.850;6.506;2023-08-12T01:17:08;1.20;;;0.32;;
55082;SDS011;40978;52.850;6.506;2023-08-12T01:19:37;0.32;;;0.20;;
55082;SDS011;40978;52.850;6.506;2023-08-12T01:22:04;1.05;;;0.43;;
55082;SDS011;40978;52.850;6.506;2023-08-12T01:24:39;0.47;;;0.20;;
55082;SDS011;40978;52.850;6.506;2023-08-12T01:27:07;0.63;;;0.43;;
55082;SDS011;40978;52.850;6.506;2023-08-12T01:29:35;0.55;;;0.28;;
55082;SDS011;40978;52.850;6.506;2023-08-12T01:34:57;1.27;;;0.40;;
55082;SDS011;40978;52.850;6.506;2023-08-12T01:37:28;0.63;;;0.28;;
55082;SDS011;40978;52.850;6.506;2023-08-12T01:39:55;2.40;;;0.40;;
55082;SDS011;40978;52.850;6.506;2023-08-12T01:42:24;1.48;;;0.40;;
55082;SDS011;40978;52.850;6.506;2023-08-12T01:44:50;1.13;;;0.50;;
55082;SDS011;40978;52.850;6.506;2023-08-12T01:47:15;0.70;;;0.47;;
55082;SDS011;40978;52.850;6.506;2023-08-12T01:49:41;0.45;;;0.30;;
55082;SDS011;40978;52.850;6.506;2023-08-12T01:52:07;1.55;;;0.73;;
55082;SDS011;40978;52.850;6.506;2023-08-12T01:54:33;0.93;;;0.38;;
55082;SDS011;40978;52.850;6.506;2023-08-12T01:57:03;2.00;;;0.60;;
55082;SDS011;40978;52.850;6.506;2023-08-12T01:59:36;1.20;;;0.50;;
55082;SDS011;40978;52.850;6.506;2023-08-12T02:02:02;1.92;;;0.32;;
55082;SDS011;40978;52.850;6.506;2023-08-12T02:04:28;2.08;;;0.55;;
55082;SDS011;40978;52.850;6.506;2023-08-12T02:06:54;1.50;;;0.40;;
55082;SDS011;40978;52.850;6.506;2023-08-12T02:09:20;1.00;;;0.38;;
55082;SDS011;40978;52.850;6.506;2023-08-12T02:11:47;1.35;;;0.50;;
55082;SDS011;40978;52.850;6.506;2023-08-12T02:14:13;1.77;;;0.60;;
55082;SDS011;40978;52.850;6.506;2023-08-12T02:16:39;1.33;;;0.50;;
55082;SDS011;40978;52.850;6.506;2023-08-12T02:19:04;1.27;;;0.20;;
55082;SDS011;40978;52.850;6.506;2023-08-12T02:21:30;1.08;;;0.30;;
55082;SDS011;40978;52.850;6.506;2023-08-12T02:23:56;1.13;;;0.60;;
55082;SDS011;40978;52.850;6.506;2023-08-12T02:26:22;1.13;;;0.40;;
55082;SDS011;40978;52.850;6.506;2023-08-12T02:28:47;1.60;;;0.70;;
55082;SDS011;40978;52.850;6.506;2023-08-12T02:31:13;2.08;;;0.68;;
55082;SDS011;40978;52.850;6.506;2023-08-12T02:33:40;2.20;;;0.55;;
55082;SDS011;40978;52.850;6.506;2023-08-12T02:36:05;1.40;;;0.65;;
55082;SDS011;40978;52.850;6.506;2023-08-12T02:38:31;0.40;;;0.30;;
55082;SDS011;40978;52.850;6.506;2023-08-12T02:41:12;1.95;;;0.57;;
55082;SDS011;40978;52.850;6.506;2023-08-12T02:43:37;2.45;;;0.93;;
55082;SDS011;40978;52.850;6.506;2023-08-12T02:46:03;1.10;;;0.50;;
55082;SDS011;40978;52.850;6.506;2023-08-12T02:48:29;1.58;;;0.65;;
55082;SDS011;40978;52.850;6.506;2023-08-12T02:50:55;1.95;;;0.43;;
55082;SDS011;40978;52.850;6.506;2023-08-12T02:53:20;1.65;;;0.50;;
55082;SDS011;40978;52.850;6.506;2023-08-12T02:55:46;1.35;;;0.57;;
55082;SDS011;40978;52.850;6.506;2023-08-12T02:58:12;1.83;;;0.80;;
55082;SDS011;40978;52.850;6.506;2023-08-12T03:00:40;1.20;;;0.40;;
55082;SDS011;40978;52.850;6.506;2023-08-12T03:03:08;0.70;;;0.40;;
55082;SDS011;40978;52.850;6.506;2023-08-12T03:05:34;0.77;;;0.47;;
55082;SDS011;40978;52.850;6.506;2023-08-12T03:08:00;1.33;;;0.60;;
55082;SDS011;40978;52.850;6.506;2023-08-12T03:10:28;0.95;;;0.60;;
55082;SDS011;40978;52.850;6.506;2023-08-12T03:12:54;1.55;;;0.63;;
55082;SDS011;40978;52.850;6.506;2023-08-12T03:15:20;1.00;;;0.57;;
55082;SDS011;40978;52.850;6.506;2023-08-12T03:17:46;1.25;;;0.55;;
55082;SDS011;40978;52.850;6.506;2023-08-12T03:20:11;1.10;;;0.70;;
55082;SDS011;40978;52.850;6.506;2023-08-12T03:22:37;3.50;;;0.50;;
55082;SDS011;40978;52.850;6.506;2023-08-12T03:25:04;1.13;;;0.40;;
55082;SDS011;40978;52.850;6.506;2023-08-12T03:27:30;1.02;;;0.50;;
55082;SDS011;40978;52.850;6.506;2023-08-12T03:29:55;1.10;;;0.28;;
55082;SDS011;40978;52.850;6.506;2023-08-12T03:32:21;1.95;;;0.52;;
55082;SDS011;40978;52.850;6.506;2023-08-12T03:34:47;2.35;;;0.40;;
55082;SDS011;40978;52.850;6.506;2023-08-12T03:37:13;1.80;;;0.55;;
55082;SDS011;40978;52.850;6.506;2023-08-12T03:39:39;1.17;;;0.55;;
55082;SDS011;40978;52.850;6.506;2023-08-12T03:42:04;1.02;;;0.55;;
55082;SDS011;40978;52.850;6.506;2023-08-12T03:44:30;2.05;;;0.75;;
55082;SDS011;40978;52.850;6.506;2023-08-12T03:46:56;1.30;;;0.60;;
55082;SDS011;40978;52.850;6.506;2023-08-12T03:49:22;1.13;;;0.68;;
55082;SDS011;40978;52.850;6.506;2023-08-12T03:51:47;1.33;;;0.50;;
55082;SDS011;40978;52.850;6.506;2023-08-12T03:54:13;0.77;;;0.50;;
55082;SDS011;40978;52.850;6.506;2023-08-12T03:56:39;1.27;;;0.57;;
55082;SDS011;40978;52.850;6.506;2023-08-12T03:59:04;1.27;;;0.52;;
55082;SDS011;40978;52.850;6.506;2023-08-12T04:01:30;1.20;;;0.70;;
55082;SDS011;40978;52.850;6.506;2023-08-12T04:03:56;1.30;;;0.50;;
55082;SDS011;40978;52.850;6.506;2023-08-12T04:06:22;0.90;;;0.50;;
55082;SDS011;40978;52.850;6.506;2023-08-12T04:08:47;1.40;;;0.35;;
55082;SDS011;40978;52.850;6.506;2023-08-12T04:11:13;2.03;;;0.95;;
55082;SDS011;40978;52.850;6.506;2023-08-12T04:13:39;1.00;;;0.43;;
55082;SDS011;40978;52.850;6.506;2023-08-12T04:16:05;1.48;;;0.40;;
55082;SDS011;40978;52.850;6.506;2023-08-12T04:18:30;1.00;;;0.50;;
55082;SDS011;40978;52.850;6.506;2023-08-12T04:20:56;2.33;;;0.95;;
55082;SDS011;40978;52.850;6.506;2023-08-12T04:23:22;3.22;;;0.82;;
55082;SDS011;40978;52.850;6.506;2023-08-12T04:25:47;1.17;;;0.50;;
55082;SDS011;40978;52.850;6.506;2023-08-12T04:28:14;5.15;;;0.68;;
55082;SDS011;40978;52.850;6.506;2023-08-12T04:30:44;5.18;;;0.88;;
55082;SDS011;40978;52.850;6.506;2023-08-12T04:33:15;1.92;;;0.57;;
55082;SDS011;40978;52.850;6.506;2023-08-12T04:35:42;1.02;;;0.45;;
55082;SDS011;40978;52.850;6.506;2023-08-12T04:38:08;1.77;;;0.95;;
55082;SDS011;40978;52.850;6.506;2023-08-12T04:40:33;1.58;;;0.60;;
55082;SDS011;40978;52.850;6.506;2023-08-12T04:42:59;1.20;;;0.57;;
55082;SDS011;40978;52.850;6.506;2023-08-12T04:45:25;0.77;;;0.45;;
55082;SDS011;40978;52.850;6.506;2023-08-12T04:47:51;0.95;;;0.50;;
55082;SDS011;40978;52.850;6.506;2023-08-12T04:50:17;2.25;;;0.90;;
55082;SDS011;40978;52.850;6.506;2023-08-12T04:52:43;1.60;;;0.52;;
55082;SDS011;40978;52.850;6.506;2023-08-12T04:55:09;1.63;;;0.93;;
55082;SDS011;40978;52.850;6.506;2023-08-12T04:57:38;1.33;;;0.75;;
55082;SDS011;40978;52.850;6.506;2023-08-12T05:00:04;1.08;;;0.60;;
55082;SDS011;40978;52.850;6.506;2023-08-12T05:02:33;1.30;;;0.57;;
55082;SDS011;40978;52.850;6.506;2023-08-12T05:04:59;2.38;;;0.73;;
55082;SDS011;40978;52.850;6.506;2023-08-12T05:07:25;3.47;;;1.02;;
55082;SDS011;40978;52.850;6.506;2023-08-12T05:09:51;1.27;;;0.50;;
55082;SDS011;40978;52.850;6.506;2023-08-12T05:12:17;1.00;;;0.60;;
55082;SDS011;40978;52.850;6.506;2023-08-12T05:14:43;1.50;;;0.65;;
55082;SDS011;40978;52.850;6.506;2023-08-12T05:17:08;2.25;;;0.88;;
55082;SDS011;40978;52.850;6.506;2023-08-12T05:19:34;1.35;;;0.82;;
55082;SDS011;40978;52.850;6.506;2023-08-12T05:22:00;1.83;;;0.75;;
55082;SDS011;40978;52.850;6.506;2023-08-12T05:24:26;1.00;;;0.65;;
55082;SDS011;40978;52.850;6.506;2023-08-12T05:26:51;1.73;;;0.88;;
55082;SDS011;40978;52.850;6.506;2023-08-12T05:29:17;3.90;;;0.90;;
55082;SDS011;40978;52.850;6.506;2023-08-12T05:31:43;1.77;;;0.90;;
55082;SDS011;40978;52.850;6.506;2023-08-12T05:34:08;1.38;;;0.80;;
55082;SDS011;40978;52.850;6.506;2023-08-12T05:36:35;1.08;;;0.80;;
55082;SDS011;40978;52.850;6.506;2023-08-12T05:39:01;3.70;;;0.82;;
55082;SDS011;40978;52.850;6.506;2023-08-12T05:41:28;1.08;;;0.60;;
55082;SDS011;40978;52.850;6.506;2023-08-12T05:43:54;1.67;;;0.70;;
55082;SDS011;40978;52.850;6.506;2023-08-12T05:46:20;1.42;;;0.70;;
55082;SDS011;40978;52.850;6.506;2023-08-12T05:48:46;1.15;;;0.88;;
55082;SDS011;40978;52.850;6.506;2023-08-12T05:51:11;2.00;;;0.90;;
55082;SDS011;40978;52.850;6.506;2023-08-12T05:53:37;1.90;;;1.00;;
55082;SDS011;40978;52.850;6.506;2023-08-12T05:56:03;1.58;;;0.90;;
55082;SDS011;40978;52.850;6.506;2023-08-12T05:58:29;1.25;;;0.65;;
55082;SDS011;40978;52.850;6.506;2023-08-12T06:00:55;1.85;;;0.88;;
55082;SDS011;40978;52.850;6.506;2023-08-12T06:03:20;1.50;;;1.05;;
55082;SDS011;40978;52.850;6.506;2023-08-12T06:05:46;1.65;;;0.90;;
55082;SDS011;40978;52.850;6.506;2023-08-12T06:08:13;0.95;;;0.70;;
55082;SDS011;40978;52.850;6.506;2023-08-12T06:10:38;2.08;;;1.15;;
55082;SDS011;40978;52.850;6.506;2023-08-12T06:13:05;1.58;;;1.05;;
55082;SDS011;40978;52.850;6.506;2023-08-12T06:15:31;1.55;;;1.10;;
55082;SDS011;40978;52.850;6.506;2023-08-12T06:17:58;1.13;;;0.73;;
55082;SDS011;40978;52.850;6.506;2023-08-12T06:20:24;1.35;;;0.85;;
55082;SDS011;40978;52.850;6.506;2023-08-12T06:22:50;1.63;;;0.80;;
55082;SDS011;40978;52.850;6.506;2023-08-12T06:25:17;2.00;;;1.00;;
55082;SDS011;40978;52.850;6.506;2023-08-12T06:27:43;2.17;;;1.10;;
55082;SDS011;40978;52.850;6.506;2023-08-12T06:30:09;2.17;;;0.90;;
55082;SDS011;40978;52.850;6.506;2023-08-12T06:32:35;2.28;;;1.30;;
55082;SDS011;40978;52.850;6.506;2023-08-12T06:35:01;1.25;;;0.80;;
55082;SDS011;40978;52.850;6.506;2023-08-12T06:37:27;1.67;;;1.02;;
55082;SDS011;40978;52.850;6.506;2023-08-12T06:39:53;3.22;;;0.80;;
55082;SDS011;40978;52.850;6.506;2023-08-12T06:42:20;1.55;;;1.00;;
55082;SDS011;40978;52.850;6.506;2023-08-12T06:44:49;2.20;;;1.20;;
55082;SDS011;40978;52.850;6.506;2023-08-12T06:47:20;2.83;;;1.30;;
55082;SDS011;40978;52.850;6.506;2023-08-12T06:49:46;2.03;;;0.85;;
55082;SDS011;40978;52.850;6.506;2023-08-12T06:52:12;2.65;;;1.02;;
55082;SDS011;40978;52.850;6.506;2023-08-12T06:54:37;1.60;;;1.02;;
55082;SDS011;40978;52.850;6.506;2023-08-12T06:57:03;2.88;;;1.35;;
55082;SDS011;40978;52.850;6.506;2023-08-12T06:59:29;2.45;;;1.15;;
55082;SDS011;40978;52.850;6.506;2023-08-12T07:01:54;2.72;;;1.42;;
55082;SDS011;40978;52.850;6.506;2023-08-12T07:04:20;1.55;;;0.77;;
55082;SDS011;40978;52.850;6.506;2023-08-12T07:06:46;1.52;;;0.80;;
55082;SDS011;40978;52.850;6.506;2023-08-12T07:09:12;2.50;;;1.33;;
55082;SDS011;40978;52.850;6.506;2023-08-12T07:11:38;3.72;;;1.20;;
55082;SDS011;40978;52.850;6.506;2023-08-12T07:14:04;1.70;;;1.00;;
55082;SDS011;40978;52.850;6.506;2023-08-12T07:16:29;1.50;;;0.98;;
55082;SDS011;40978;52.850;6.506;2023-08-12T07:18:55;3.00;;;1.58;;
55082;SDS011;40978;52.850;6.506;2023-08-12T07:21:21;2.70;;;1.00;;
55082;SDS011;40978;52.850;6.506;2023-08-12T07:23:47;3.50;;;1.55;;
55082;SDS011;40978;52.850;6.506;2023-08-12T07:26:13;2.55;;;1.35;;
55082;SDS011;40978;52.850;6.506;2023-08-12T07:28:38;2.65;;;1.40;;
55082;SDS011;40978;52.850;6.506;2023-08-12T07:31:04;2.28;;;1.40;;
55082;SDS011;40978;52.850;6.506;2023-08-12T07:33:30;1.90;;;1.40;;
55082;SDS011;40978;52.850;6.506;2023-08-12T07:35:55;1.05;;;0.82;;
55082;SDS011;40978;52.850;6.506;2023-08-12T07:38:21;1.65;;;1.00;;
55082;SDS011;40978;52.850;6.506;2023-08-12T07:40:48;4.05;;;1.33;;
55082;SDS011;40978;52.850;6.506;2023-08-12T07:43:14;2.97;;;1.30;;
55082;SDS011;40978;52.850;6.506;2023-08-12T07:45:40;2.38;;;1.25;;
55082;SDS011;40978;52.850;6.506;2023-08-12T07:48:06;3.35;;;1.30;;
55082;SDS011;40978;52.850;6.506;2023-08-12T07:50:32;1.73;;;1.20;;
55082;SDS011;40978;52.850;6.506;2023-08-12T07:52:57;2.47;;;1.48;;
55082;SDS011;40978;52.850;6.506;2023-08-12T07:55:23;2.45;;;1.30;;
55082;SDS011;40978;52.850;6.506;2023-08-12T07:57:49;1.83;;;1.08;;
55082;SDS011;40978;52.850;6.506;2023-08-12T08:00:15;1.65;;;1.15;;
55082;SDS011;40978;52.850;6.506;2023-08-12T08:02:40;4.45;;;1.40;;
55082;SDS011;40978;52.850;6.506;2023-08-12T08:05:06;2.15;;;1.20;;
55082;SDS011;40978;52.850;6.506;2023-08-12T08:07:32;1.25;;;0.93;;
55082;SDS011;40978;52.850;6.506;2023-08-12T08:09:58;1.50;;;0.98;;
55082;SDS011;40978;52.850;6.506;2023-08-12T08:12:24;2.15;;;1.40;;
55082;SDS011;40978;52.850;6.506;2023-08-12T08:14:49;1.25;;;0.63;;
55082;SDS011;40978;52.850;6.506;2023-08-12T08:17:15;2.22;;;1.23;;
55082;SDS011;40978;52.850;6.506;2023-08-12T08:19:41;2.08;;;1.00;;
55082;SDS011;40978;52.850;6.506;2023-08-12T08:22:07;1.33;;;0.90;;
55082;SDS011;40978;52.850;6.506;2023-08-12T08:24:32;1.27;;;0.70;;
55082;SDS011;40978;52.850;6.506;2023-08-12T08:26:58;1.85;;;0.80;;
55082;SDS011;40978;52.850;6.506;2023-08-12T08:29:24;3.90;;;1.08;;
55082;SDS011;40978;52.850;6.506;2023-08-12T08:31:49;1.50;;;0.80;;
55082;SDS011;40978;52.850;6.506;2023-08-12T08:34:15;1.85;;;1.00;;
55082;SDS011;40978;52.850;6.506;2023-08-12T08:36:41;2.28;;;1.02;;
55082;SDS011;40978;52.850;6.506;2023-08-12T08:39:08;2.05;;;1.08;;
55082;SDS011;40978;52.850;6.506;2023-08-12T08:41:35;1.90;;;1.10;;
55082;SDS011;40978;52.850;6.506;2023-08-12T08:44:03;1.35;;;0.77;;
55082;SDS011;40978;52.850;6.506;2023-08-12T08:46:32;1.20;;;0.93;;
55082;SDS011;40978;52.850;6.506;2023-08-12T08:48:59;1.23;;;0.60;;
55082;SDS011;40978;52.850;6.506;2023-08-12T08:51:31;1.65;;;0.90;;
55082;SDS011;40978;52.850;6.506;2023-08-12T08:53:57;0.90;;;0.50;;
55082;SDS011;40978;52.850;6.506;2023-08-12T08:56:23;1.00;;;0.40;;
55082;SDS011;40978;52.850;6.506;2023-08-12T08:58:49;1.15;;;0.55;;
55082;SDS011;40978;52.850;6.506;2023-08-12T09:01:17;0.40;;;0.30;;
55082;SDS011;40978;52.850;6.506;2023-08-12T09:03:47;0.70;;;0.47;;
55082;SDS011;40978;52.850;6.506;2023-08-12T09:06:15;1.25;;;0.40;;
55082;SDS011;40978;52.850;6.506;2023-08-12T09:08:43;0.75;;;0.22;;
55082;SDS011;40978;52.850;6.506;2023-08-12T09:11:11;0.57;;;0.30;;
55082;SDS011;40978;52.850;6.506;2023-08-12T09:13:38;0.32;;;0.20;;
55082;SDS011;40978;52.850;6.506;2023-08-12T09:16:04;0.80;;;0.28;;
55082;SDS011;40978;52.850;6.506;2023-08-12T09:18:30;0.50;;;0.25;;
55082;SDS011;40978;52.850;6.506;2023-08-12T09:20:56;0.47;;;0.13;;
55082;SDS011;40978;52.850;6.506;2023-08-12T09:23:22;0.38;;;0.20;;
55082;SDS011;40978;52.850;6.506;2023-08-12T09:25:48;0.32;;;0.20;;
55082;SDS011;40978;52.850;6.506;2023-08-12T09:28:14;0.35;;;0.30;;
55082;SDS011;40978;52.850;6.506;2023-08-12T09:30:40;0.45;;;0.20;;
55082;SDS011;40978;52.850;6.506;2023-08-12T09:33:07;0.20;;;0.10;;
55082;SDS011;40978;52.850;6.506;2023-08-12T09:35:34;0.10;;;0.00;;
55082;SDS011;40978;52.850;6.506;2023-08-12T09:38:04;0.85;;;0.20;;
55082;SDS011;40978;52.850;6.506;2023-08-12T09:40:32;0.15;;;0.15;;
55082;SDS011;40978;52.850;6.506;2023-08-12T09:42:59;1.45;;;0.40;;
55082;SDS011;40978;52.850;6.506;2023-08-12T09:45:26;0.32;;;0.10;;
55082;SDS011;40978;52.850;6.506;2023-08-12T09:47:55;2.72;;;0.60;;
55082;SDS011;40978;52.850;6.506;2023-08-12T09:50:21;1.13;;;0.30;;
55082;SDS011;40978;52.850;6.506;2023-08-12T09:52:48;0.38;;;0.22;;
55082;SDS011;40978;52.850;6.506;2023-08-12T09:55:15;0.32;;;0.15;;
55082;SDS011;40978;52.850;6.506;2023-08-12T09:57:42;3.03;;;0.10;;
55082;SDS011;40978;52.850;6.506;2023-08-12T10:00:10;1.05;;;0.20;;
55082;SDS011;40978;52.850;6.506;2023-08-12T10:02:41;0.20;;;0.20;;
55082;SDS011;40978;52.850;6.506;2023-08-12T10:05:11;0.30;;;0.10;;
55082;SDS011;40978;52.850;6.506;2023-08-12T10:07:41;0.52;;;0.17;;
55082;SDS011;40978;52.850;6.506;2023-08-12T10:10:08;0.45;;;0.15;;
55082;SDS011;40978;52.850;6.506;2023-08-12T10:12:35;0.55;;;0.22;;
55082;SDS011;40978;52.850;6.506;2023-08-12T10:15:03;0.10;;;0.00;;
55082;SDS011;40978;52.850;6.506;2023-08-12T10:17:30;0.00;;;0.00;;
55082;SDS011;40978;52.850;6.506;2023-08-12T10:19:57;0.05;;;0.00;;
55082;SDS011;40978;52.850;6.506;2023-08-12T10:22:24;0.00;;;0.00;;
55082;SDS011;40978;52.850;6.506;2023-08-12T10:24:51;0.00;;;0.00;;
55082;SDS011;40978;52.850;6.506;2023-08-12T10:27:17;0.00;;;0.00;;
55082;SDS011;40978;52.850;6.506;2023-08-12T10:29:44;0.10;;;0.00;;
55082;SDS011;40978;52.850;6.506;2023-08-12T10:32:11;0.00;;;0.00;;
55082;SDS011;40978;52.850;6.506;2023-08-12T10:34:38;0.00;;;0.00;;
55082;SDS011;40978;52.850;6.506;2023-08-12T10:37:04;0.00;;;0.00;;
55082;SDS011;40978;52.850;6.506;2023-08-12T10:39:33;0.10;;;0.08;;
55082;SDS011;40978;52.850;6.506;2023-08-12T10:41:59;0.10;;;0.00;;
55082;SDS011;40978;52.850;6.506;2023-08-12T10:44:49;0.00;;;0.00;;
55082;SDS011;40978;52.850;6.506;2023-08-12T10:47:16;0.00;;;0.00;;
55082;SDS011;40978;52.850;6.506;2023-08-12T10:49:43;0.00;;;0.00;;
55082;SDS011;40978;52.850;6.506;2023-08-12T10:52:20;0.10;;;0.00;;
55082;SDS011;40978;52.850;6.506;2023-08-12T10:55:15;0.00;;;0.00;;
55082;SDS011;40978;52.850;6.506;2023-08-12T10:57:44;0.05;;;0.00;;
55082;SDS011;40978;52.850;6.506;2023-08-12T11:00:10;0.10;;;0.00;;
55082;SDS011;40978;52.850;6.506;2023-08-12T11:02:43;0.10;;;0.00;;
55082;SDS011;40978;52.850;6.506;2023-08-12T11:05:10;0.00;;;0.00;;
55082;SDS011;40978;52.850;6.506;2023-08-12T11:07:45;0.25;;;0.00;;
55082;SDS011;40978;52.850;6.506;2023-08-12T11:10:30;0.00;;;0.00;;
55082;SDS011;40978;52.850;6.506;2023-08-12T11:12:57;0.00;;;0.00;;
55082;SDS011;40978;52.850;6.506;2023-08-12T11:15:45;0.00;;;0.00;;
55082;SDS011;40978;52.850;6.506;2023-08-12T11:18:13;0.10;;;0.00;;
55082;SDS011;40978;52.850;6.506;2023-08-12T11:20:41;0.00;;;0.00;;
55082;SDS011;40978;52.850;6.506;2023-08-12T11:23:08;0.05;;;0.00;;
55082;SDS011;40978;52.850;6.506;2023-08-12T11:25:37;0.00;;;0.00;;
55082;SDS011;40978;52.850;6.506;2023-08-12T11:28:04;0.00;;;0.00;;
55082;SDS011;40978;52.850;6.506;2023-08-12T11:30:31;0.00;;;0.00;;
55082;SDS011;40978;52.850;6.506;2023-08-12T11:32:56;0.00;;;0.00;;
55082;SDS011;40978;52.850;6.506;2023-08-12T11:35:24;0.10;;;0.00;;
55082;SDS011;40978;52.850;6.506;2023-08-12T11:37:51;0.52;;;0.03;;
55082;SDS011;40978;52.850;6.506;2023-08-12T11:40:18;0.10;;;0.00;;
55082;SDS011;40978;52.850;6.506;2023-08-12T11:42:46;0.10;;;0.10;;
55082;SDS011;40978;52.850;6.506;2023-08-12T11:45:16;0.00;;;0.00;;
55082;SDS011;40978;52.850;6.506;2023-08-12T11:47:43;0.00;;;0.00;;
55082;SDS011;40978;52.850;6.506;2023-08-12T11:50:11;1.65;;;0.10;;
55082;SDS011;40978;52.850;6.506;2023-08-12T11:52:38;0.20;;;0.03;;
55082;SDS011;40978;52.850;6.506;2023-08-12T11:55:05;0.00;;;0.00;;
55082;SDS011;40978;52.850;6.506;2023-08-12T11:57:32;0.60;;;0.03;;
55082;SDS011;40978;52.850;6.506;2023-08-12T12:00:06;0.00;;;0.00;;
55082;SDS011;40978;52.850;6.506;2023-08-12T12:02:39;0.00;;;0.00;;
55082;SDS011;40978;52.850;6.506;2023-08-12T12:05:10;0.13;;;0.10;;
55082;SDS011;40978;52.850;6.506;2023-08-12T12:07:36;0.00;;;0.00;;
55082;SDS011;40978;52.850;6.506;2023-08-12T12:10:03;0.00;;;0.00;;
55082;SDS011;40978;52.850;6.506;2023-08-12T12:12:32;0.10;;;0.05;;
55082;SDS011;40978;52.850;6.506;2023-08-12T12:15:03;0.10;;;0.00;;
55082;SDS011;40978;52.850;6.506;2023-08-12T12:17:30;0.65;;;0.00;;
55082;SDS011;40978;52.850;6.506;2023-08-12T12:19:56;0.20;;;0.00;;
55082;SDS011;40978;52.850;6.506;2023-08-12T12:22:27;0.03;;;0.03;;
55082;SDS011;40978;52.850;6.506;2023-08-12T12:24:58;0.30;;;0.08;;
55082;SDS011;40978;52.850;6.506;2023-08-12T12:27:25;0.13;;;0.13;;
55082;SDS011;40978;52.850;6.506;2023-08-12T12:29:51;0.10;;;0.10;;
55082;SDS011;40978;52.850;6.506;2023-08-12T12:32:18;0.10;;;0.00;;
55082;SDS011;40978;52.850;6.506;2023-08-12T12:34:45;0.00;;;0.00;;
55082;SDS011;40978;52.850;6.506;2023-08-12T12:37:11;0.25;;;0.00;;
55082;SDS011;40978;52.850;6.506;2023-08-12T12:39:38;3.72;;;0.30;;
55082;SDS011;40978;52.850;6.506;2023-08-12T12:42:04;0.80;;;0.10;;
55082;SDS011;40978;52.850;6.506;2023-08-12T12:44:30;0.03;;;0.00;;
55082;SDS011;40978;52.850;6.506;2023-08-12T12:46:56;0.20;;;0.10;;
55082;SDS011;40978;52.850;6.506;2023-08-12T12:49:22;0.28;;;0.10;;
55082;SDS011;40978;52.850;6.506;2023-08-12T12:51:48;0.10;;;0.03;;
55082;SDS011;40978;52.850;6.506;2023-08-12T12:54:15;0.15;;;0.03;;
55082;SDS011;40978;52.850;6.506;2023-08-12T12:56:41;0.00;;;0.00;;
55082;SDS011;40978;52.850;6.506;2023-08-12T12:59:06;1.77;;;0.20;;
55082;SDS011;40978;52.850;6.506;2023-08-12T13:01:33;0.40;;;0.08;;
55082;SDS011;40978;52.850;6.506;2023-08-12T13:03:58;0.25;;;0.10;;
55082;SDS011;40978;52.850;6.506;2023-08-12T13:06:24;0.25;;;0.10;;
55082;SDS011;40978;52.850;6.506;2023-08-12T13:08:50;0.15;;;0.10;;
55082;SDS011;40978;52.850;6.506;2023-08-12T13:11:16;0.10;;;0.00;;
55082;SDS011;40978;52.850;6.506;2023-08-12T13:13:42;0.50;;;0.28;;
55082;SDS011;40978;52.850;6.506;2023-08-12T13:16:08;0.73;;;0.00;;
55082;SDS011;40978;52.850;6.506;2023-08-12T13:18:34;0.00;;;0.00;;
55082;SDS011;40978;52.850;6.506;2023-08-12T13:20:59;1.17;;;0.30;;
55082;SDS011;40978;52.850;6.506;2023-08-12T13:23:26;0.50;;;0.10;;
55082;SDS011;40978;52.850;6.506;2023-08-12T13:25:51;0.10;;;0.00;;
55082;SDS011;40978;52.850;6.506;2023-08-12T13:28:18;3.00;;;0.25;;
55082;SDS011;40978;52.850;6.506;2023-08-12T13:30:44;0.43;;;0.15;;
55082;SDS011;40978;52.850;6.506;2023-08-12T13:33:10;0.40;;;0.10;;
55082;SDS011;40978;52.850;6.506;2023-08-12T13:35:36;0.60;;;0.10;;
55082;SDS011;40978;52.850;6.506;2023-08-12T13:38:02;0.10;;;0.00;;
55082;SDS011;40978;52.850;6.506;2023-08-12T13:40:28;1.38;;;0.30;;
55082;SDS011;40978;52.850;6.506;2023-08-12T13:42:54;0.35;;;0.10;;
55082;SDS011;40978;52.850;6.506;2023-08-12T13:45:20;0.82;;;0.20;;
55082;SDS011;40978;52.850;6.506;2023-08-12T13:47:45;0.30;;;0.10;;
55082;SDS011;40978;52.850;6.506;2023-08-12T13:50:11;1.08;;;0.13;;
55082;SDS011;40978;52.850;6.506;2023-08-12T13:52:38;0.43;;;0.00;;
55082;SDS011;40978;52.850;6.506;2023-08-12T13:55:05;0.10;;;0.00;;
55082;SDS011;40978;52.850;6.506;2023-08-12T13:57:31;1.00;;;0.10;;
55082;SDS011;40978;52.850;6.506;2023-08-12T13:59:56;0.90;;;0.20;;
55082;SDS011;40978;52.850;6.506;2023-08-12T14:02:23;0.15;;;0.10;;
55082;SDS011;40978;52.850;6.506;2023-08-12T14:04:49;0.50;;;0.15;;
55082;SDS011;40978;52.850;6.506;2023-08-12T14:07:15;0.00;;;0.00;;
55082;SDS011;40978;52.850;6.506;2023-08-12T14:09:41;0.25;;;0.03;;
55082;SDS011;40978;52.850;6.506;2023-08-12T14:12:07;0.35;;;0.00;;
55082;SDS011;40978;52.850;6.506;2023-08-12T14:14:33;0.00;;;0.00;;
55082;SDS011;40978;52.850;6.506;2023-08-12T14:16:59;0.55;;;0.05;;
55082;SDS011;40978;52.850;6.506;2023-08-12T14:19:24;0.90;;;0.25;;
55082;SDS011;40978;52.850;6.506;2023-08-12T14:21:50;1.00;;;0.10;;
55082;SDS011;40978;52.850;6.506;2023-08-12T14:24:16;0.20;;;0.00;;
55082;SDS011;40978;52.850;6.506;2023-08-12T14:26:41;0.00;;;0.00;;
55082;SDS011;40978;52.850;6.506;2023-08-12T14:29:07;0.10;;;0.00;;
55082;SDS011;40978;52.850;6.506;2023-08-12T14:31:33;0.10;;;0.10;;
55082;SDS011;40978;52.850;6.506;2023-08-12T14:33:59;0.35;;;0.03;;
55082;SDS011;40978;52.850;6.506;2023-08-12T14:36:26;0.43;;;0.13;;
55082;SDS011;40978;52.850;6.506;2023-08-12T14:38:52;0.52;;;0.10;;
55082;SDS011;40978;52.850;6.506;2023-08-12T14:41:18;0.73;;;0.40;;
55082;SDS011;40978;52.850;6.506;2023-08-12T14:43:44;0.08;;;0.00;;
55082;SDS011;40978;52.850;6.506;2023-08-12T14:46:10;0.63;;;0.28;;
55082;SDS011;40978;52.850;6.506;2023-08-12T14:48:35;0.40;;;0.15;;
55082;SDS011;40978;52.850;6.506;2023-08-12T14:51:01;0.73;;;0.10;;